createdAt,value
2023-01-04T00:00:03.907Z,5.00
2023-01-04T00:02:33.531Z,5.07
2023-01-04T00:05:02.257Z,5.60
2023-01-04T00:07:31.014Z,5.50
2023-01-04T00:09:59.869Z,5.72
2023-01-04T00:12:28.491Z,5.30
2023-01-04T00:14:57.056Z,4.97
2023-01-04T00:17:27.127Z,5.32
2023-01-04T00:19:55.795Z,4.73
2023-01-04T00:22:24.376Z,5.20
2023-01-04T00:24:53.011Z,5.72
2023-01-04T00:27:21.641Z,5.78
2023-01-04T00:29:50.156Z,6.05
2023-01-04T00:32:18.679Z,6.22
2023-01-04T00:34:49.646Z,6.63
2023-01-04T00:37:18.310Z,5.80
2023-01-04T00:39:46.864Z,5.75
2023-01-04T00:42:15.404Z,5.85
2023-01-04T00:44:43.976Z,5.20
2023-01-04T00:47:12.620Z,4.88
2023-01-04T00:49:41.113Z,4.32
2023-01-04T00:52:11.175Z,4.05
2023-01-04T00:54:39.716Z,3.40
2023-01-04T00:57:09.183Z,2.92
2023-01-04T00:59:37.627Z,3.20
2023-01-04T01:02:06.526Z,2.88
2023-01-04T01:04:35.244Z,2.42
2023-01-04T01:07:03.791Z,2.95
2023-01-04T01:09:34.198Z,2.63
2023-01-04T01:12:02.785Z,2.63
2023-01-04T01:14:31.186Z,2.30
2023-01-04T01:16:59.895Z,1.95
2023-01-04T01:19:29.549Z,2.08
2023-01-04T01:21:58.705Z,1.85
2023-01-04T01:24:28.180Z,1.65
2023-01-04T01:26:59.558Z,1.75
2023-01-04T01:29:28.204Z,1.83
2023-01-04T01:31:56.749Z,1.55
2023-01-04T01:34:25.386Z,1.65
2023-01-04T01:36:53.928Z,1.55
2023-01-04T01:39:22.542Z,1.38
2023-01-04T01:41:51.381Z,1.15
2023-01-04T01:45:11.263Z,1.10
2023-01-04T01:47:46.432Z,0.85
2023-01-04T01:50:23.653Z,1.15
2023-01-04T01:52:53.499Z,1.00
2023-01-04T01:55:23.186Z,0.95
2023-01-04T01:57:53.127Z,0.90
2023-01-04T02:00:21.875Z,0.65
2023-01-04T02:02:59.391Z,0.65
2023-01-04T02:05:29.864Z,0.65
2023-01-04T02:07:58.647Z,0.50
2023-01-04T02:10:28.396Z,0.50
2023-01-04T02:12:57.124Z,0.50
2023-01-04T02:15:29.935Z,0.65
2023-01-04T02:18:07.414Z,0.40
2023-01-04T02:20:45.972Z,0.40
2023-01-04T02:23:36.516Z,0.30
2023-01-04T02:26:36.054Z,0.40
2023-01-04T02:29:44.471Z,0.20
2023-01-04T02:32:23.919Z,0.20
2023-01-04T02:35:01.288Z,0.20
2023-01-04T02:37:41.344Z,0.20
2023-01-04T02:40:18.097Z,0.10
2023-01-04T02:43:16.329Z,0.10
2023-01-04T02:45:51.079Z,0.10
2023-01-04T02:48:38.795Z,0.10
2023-01-04T02:51:07.463Z,0.10
2023-01-04T02:53:38.201Z,0.10
2023-01-04T02:56:17.080Z,0.10
2023-01-04T02:59:07.134Z,0.10
2023-01-04T03:02:02.964Z,0.10
2023-01-04T03:05:06.144Z,0.10
2023-01-04T03:07:41.038Z,0.20
2023-01-04T03:10:19.247Z,0.10
2023-01-04T03:12:52.443Z,0.10
2023-01-04T03:15:24.080Z,0.10
2023-01-04T03:17:56.902Z,0.00
2023-01-04T03:20:31.750Z,0.10
2023-01-04T03:23:21.654Z,0.00
2023-01-04T03:26:12.549Z,0.10
2023-01-04T03:29:02.066Z,0.10
2023-01-04T03:31:53.818Z,0.00
2023-01-04T03:34:40.332Z,0.00
2023-01-04T03:37:17.875Z,0.10
2023-01-04T03:40:18.864Z,0.00
2023-01-04T03:43:15.039Z,0.00
2023-01-04T03:46:06.671Z,0.00
2023-01-04T03:48:41.573Z,0.00
2023-01-04T03:51:15.983Z,0.00
2023-01-04T03:53:55.783Z,0.00
2023-01-04T03:56:26.496Z,0.00
2023-01-04T03:58:56.120Z,0.00
2023-01-04T04:01:27.667Z,0.00
2023-01-04T04:04:15.530Z,0.00
2023-01-04T04:07:04.657Z,0.00
2023-01-04T04:09:35.424Z,0.00
2023-01-04T04:12:04.302Z,0.00
2023-01-04T04:14:32.828Z,0.00
2023-01-04T04:17:01.816Z,0.00
2023-01-04T04:19:33.550Z,0.00
2023-01-04T04:22:02.329Z,0.00
2023-01-04T04:24:31.127Z,0.00
2023-01-04T04:27:01.382Z,0.00
2023-01-04T04:29:30.224Z,0.00
2023-01-04T04:31:59.186Z,0.00
2023-01-04T04:34:27.939Z,0.00
2023-01-04T04:36:56.924Z,0.20
2023-01-04T04:39:25.595Z,0.00
2023-01-04T04:41:53.229Z,0.10
2023-01-04T04:44:23.541Z,0.00
2023-01-04T04:46:52.408Z,0.10
2023-01-04T04:49:21.256Z,0.17
2023-01-04T04:51:50.072Z,0.00
2023-01-04T04:54:21.982Z,0.10
2023-01-04T04:56:51.271Z,0.00
2023-01-04T04:59:20.067Z,0.08
2023-01-04T05:01:50.410Z,0.00
2023-01-04T05:04:19.997Z,0.00
2023-01-04T05:06:50.532Z,0.30
2023-01-04T05:09:21.094Z,0.10
2023-01-04T05:12:18.921Z,0.10
2023-01-04T05:14:47.889Z,0.10
2023-01-04T05:17:18.070Z,0.20
2023-01-04T05:19:46.852Z,0.10
2023-01-04T05:22:15.550Z,0.80
2023-01-04T05:24:44.195Z,0.47
2023-01-04T05:27:12.847Z,0.20
2023-01-04T05:29:59.054Z,0.10
2023-01-04T05:32:29.229Z,0.20
2023-01-04T05:35:00.994Z,0.10
2023-01-04T05:37:29.866Z,0.03
2023-01-04T05:39:58.714Z,0.00
2023-01-04T05:42:28.314Z,0.03
2023-01-04T05:44:58.789Z,0.03
2023-01-04T05:47:30.135Z,0.00
2023-01-04T05:49:59.064Z,0.00
2023-01-04T05:52:27.896Z,0.10
2023-01-04T05:54:56.671Z,0.10
2023-01-04T05:57:25.431Z,0.10
2023-01-04T05:59:54.391Z,0.00
2023-01-04T06:02:26.965Z,0.00
2023-01-04T06:05:00.634Z,0.00
2023-01-04T06:07:30.613Z,0.00
2023-01-04T06:09:59.427Z,0.00
2023-01-04T06:12:28.328Z,0.00
2023-01-04T06:14:56.988Z,0.00
2023-01-04T06:17:25.700Z,0.00
2023-01-04T06:19:54.499Z,0.00
2023-01-04T06:27:25.255Z,0.00
2023-01-04T06:29:55.248Z,0.00
2023-01-04T06:32:25.603Z,0.38
2023-01-04T06:34:54.483Z,0.00
2023-01-04T06:37:23.268Z,0.00
2023-01-04T06:39:53.639Z,0.00
2023-01-04T06:42:39.525Z,0.05
2023-01-04T06:45:10.090Z,0.00
2023-01-04T06:47:38.849Z,0.00
2023-01-04T06:50:08.056Z,0.00
2023-01-04T06:52:37.047Z,0.00
2023-01-04T06:55:09.789Z,0.10
2023-01-04T06:57:38.826Z,0.10
2023-01-04T07:00:09.334Z,0.93
2023-01-04T07:02:38.502Z,0.70
2023-01-04T07:05:08.074Z,0.10
2023-01-04T07:07:37.230Z,0.38
2023-01-04T07:10:09.988Z,0.03
2023-01-04T07:12:42.392Z,0.10
2023-01-04T07:15:39.595Z,0.10
2023-01-04T07:18:09.341Z,0.10
2023-01-04T07:20:39.171Z,0.10
2023-01-04T07:23:09.221Z,0.10
2023-01-04T07:25:39.557Z,0.47
2023-01-04T07:28:08.192Z,0.30
2023-01-04T07:30:37.156Z,0.20
2023-01-04T07:33:06.464Z,0.10
2023-01-04T07:35:35.141Z,0.20
2023-01-04T07:38:04.587Z,0.77
2023-01-04T07:40:33.416Z,0.20
2023-01-04T07:43:03.574Z,0.30
2023-01-04T07:45:32.342Z,0.20
2023-01-04T07:48:04.123Z,0.20
2023-01-04T07:50:32.882Z,0.30
2023-01-04T07:53:03.077Z,0.28
2023-01-04T07:55:31.984Z,0.20
2023-01-04T07:58:00.513Z,0.10
2023-01-04T08:00:30.744Z,0.20
2023-01-04T08:02:59.552Z,0.43
2023-01-04T08:05:33.988Z,0.20
2023-01-04T08:08:03.015Z,0.25
2023-01-04T08:10:31.644Z,0.30
2023-01-04T08:13:00.866Z,0.22
2023-01-04T08:15:31.110Z,0.35
2023-01-04T08:18:00.623Z,0.47
2023-01-04T08:20:29.326Z,0.30
2023-01-04T08:23:01.124Z,0.20
2023-01-04T08:25:29.904Z,0.30
2023-01-04T08:27:58.543Z,0.55
2023-01-04T08:30:27.459Z,0.40
2023-01-04T08:32:59.975Z,0.30
2023-01-04T08:35:28.943Z,0.40
2023-01-04T08:40:58.520Z,0.20
2023-01-04T08:43:29.012Z,0.30
2023-01-04T08:45:59.852Z,0.30
2023-01-04T08:48:30.283Z,0.20
2023-01-04T08:51:00.894Z,0.10
2023-01-04T08:53:29.959Z,0.20
2023-01-04T08:56:01.096Z,0.17
2023-01-04T08:58:30.857Z,0.10
2023-01-04T09:01:02.494Z,0.10
2023-01-04T09:03:33.229Z,0.00
2023-01-04T09:06:06.266Z,0.10
2023-01-04T09:08:35.317Z,0.10
2023-01-04T09:11:06.825Z,0.17
2023-01-04T09:13:36.523Z,0.20
2023-01-04T09:16:07.203Z,0.00
2023-01-04T09:18:37.793Z,0.00
2023-01-04T09:21:11.704Z,0.00
2023-01-04T09:23:41.272Z,0.20
2023-01-04T09:26:11.448Z,0.10
2023-01-04T09:28:40.926Z,0.10
2023-01-04T09:31:10.851Z,0.20
2023-01-04T09:34:12.836Z,0.20
2023-01-04T09:36:32.615Z,0.17
2023-01-04T09:39:01.298Z,0.20
2023-01-04T09:41:31.175Z,0.10
2023-01-04T09:44:04.275Z,0.20
2023-01-04T09:46:40.440Z,0.40
2023-01-04T09:49:19.317Z,0.25
2023-01-04T09:51:56.663Z,0.20
2023-01-04T09:54:30.702Z,0.20
2023-01-04T09:57:01.016Z,0.30
2023-01-04T09:59:32.869Z,0.20
2023-01-04T10:02:05.804Z,0.10
2023-01-04T10:04:45.991Z,0.10
2023-01-04T10:07:22.251Z,0.10
2023-01-04T10:09:53.690Z,0.10
2023-01-04T10:12:35.130Z,0.10
2023-01-04T10:15:21.528Z,0.10
2023-01-04T10:21:32.794Z,0.20
2023-01-04T10:24:26.965Z,0.10
2023-01-04T10:27:01.472Z,0.10
2023-01-04T10:29:44.367Z,0.10
2023-01-04T10:32:20.740Z,0.10
2023-01-04T10:34:50.253Z,0.05
2023-01-04T10:37:25.329Z,0.10
2023-01-04T10:39:55.962Z,0.00
2023-01-04T10:42:33.999Z,0.00
2023-01-04T10:45:13.770Z,0.00
2023-01-04T10:47:51.333Z,0.00
2023-01-04T10:50:28.149Z,0.00
2023-01-04T10:53:06.589Z,0.00
2023-01-04T10:56:24.125Z,0.05
2023-01-04T10:58:41.275Z,0.00
2023-01-04T11:01:15.548Z,0.00
2023-01-04T11:03:50.002Z,0.00
2023-01-04T11:06:23.458Z,0.17
2023-01-04T11:08:59.474Z,0.00
2023-01-04T11:11:33.892Z,0.10
2023-01-04T11:14:02.706Z,0.10
2023-01-04T11:16:32.343Z,0.10
2023-01-04T11:19:01.221Z,0.10
2023-01-04T11:21:35.746Z,0.10
2023-01-04T11:24:30.961Z,0.10
2023-01-04T11:26:59.769Z,0.10
2023-01-04T11:29:36.705Z,0.10
2023-01-04T11:32:15.525Z,0.17
2023-01-04T11:34:51.022Z,0.15
2023-01-04T11:37:33.662Z,2.30
2023-01-04T11:40:28.242Z,7.03
2023-01-04T11:43:14.248Z,0.30
2023-01-04T11:45:55.421Z,0.10
2023-01-04T11:51:01.988Z,0.10
2023-01-04T11:53:34.986Z,0.10
2023-01-04T11:56:16.014Z,0.10
2023-01-04T11:58:46.840Z,0.00
2023-01-04T12:01:24.800Z,0.00
2023-01-04T12:03:53.749Z,0.08
2023-01-04T12:06:28.577Z,0.10
2023-01-04T12:08:57.543Z,0.20
2023-01-04T12:11:31.162Z,0.10
2023-01-04T12:14:01.088Z,0.13
2023-01-04T12:16:46.713Z,0.10
2023-01-04T12:19:18.325Z,0.20
2023-01-04T12:21:50.309Z,0.00
2023-01-04T12:24:22.540Z,0.00
2023-01-04T12:26:53.916Z,0.10
2023-01-04T12:30:00.235Z,0.03
2023-01-04T12:32:44.463Z,0.25
2023-01-04T12:36:01.701Z,0.10
2023-01-04T12:39:03.120Z,0.05
2023-01-04T12:45:03.503Z,0.00
2023-01-04T12:48:06.390Z,0.00
2023-01-04T12:51:46.826Z,0.00
2023-01-04T12:54:32.269Z,0.00
2023-01-04T12:57:28.338Z,0.00
2023-01-04T13:00:00.311Z,0.10
2023-01-04T13:02:32.198Z,0.17
2023-01-04T13:05:53.532Z,0.00
2023-01-04T13:07:53.882Z,0.08
2023-01-04T13:10:38.174Z,0.10
2023-01-04T13:13:31.110Z,0.10
2023-01-04T13:16:16.207Z,0.10
2023-01-04T13:18:50.566Z,0.10
2023-01-04T13:21:29.535Z,0.10
2023-01-04T13:24:01.352Z,0.10
2023-01-04T13:26:35.489Z,0.10
2023-01-04T13:29:14.721Z,0.05
2023-01-04T13:31:49.359Z,0.10
2023-01-04T13:34:24.852Z,0.10
2023-01-04T13:37:30.852Z,0.00
2023-01-04T13:40:24.514Z,0.10
2023-01-04T13:43:09.509Z,0.00
2023-01-04T13:46:05.990Z,0.10
2023-01-04T13:48:39.395Z,0.20
2023-01-04T13:51:16.572Z,0.10
2023-01-04T13:53:54.469Z,0.10
2023-01-04T13:56:25.441Z,0.00
2023-01-04T13:58:54.265Z,0.00
2023-01-04T14:01:26.865Z,0.00
2023-01-04T14:03:58.645Z,0.00
2023-01-04T14:06:31.287Z,0.00
2023-01-04T14:09:06.891Z,0.00
2023-01-04T14:12:08.510Z,0.00
2023-01-04T14:14:46.952Z,0.00
2023-01-04T14:17:23.353Z,0.00
2023-01-04T14:19:54.848Z,0.00
2023-01-04T14:22:44.107Z,0.00
2023-01-04T14:25:48.764Z,0.10
2023-01-04T14:28:46.979Z,0.10
2023-01-04T14:31:31.804Z,0.10
2023-01-04T14:34:00.527Z,0.10
2023-01-04T14:36:31.318Z,0.00
2023-01-04T14:39:18.779Z,0.00
2023-01-04T14:41:57.717Z,0.00
2023-01-04T14:44:31.143Z,0.00
2023-01-04T14:47:01.439Z,0.08
2023-01-04T14:49:31.707Z,0.00
2023-01-04T14:52:01.941Z,0.00
2023-01-04T14:54:35.347Z,0.03
2023-01-04T14:57:04.714Z,0.10
2023-01-04T14:59:34.594Z,0.00
2023-01-04T15:02:03.550Z,0.10
2023-01-04T15:04:32.214Z,0.10
2023-01-04T15:07:02.730Z,0.93
2023-01-04T15:09:35.031Z,1.10
2023-01-04T15:12:03.847Z,0.00
2023-01-04T15:14:32.819Z,0.10
2023-01-04T15:17:01.702Z,0.10
2023-01-04T15:19:38.035Z,0.10
2023-01-04T15:22:07.333Z,0.10
2023-01-04T15:24:37.489Z,0.00
2023-01-04T15:27:06.272Z,0.00
2023-01-04T15:29:37.164Z,0.00
2023-01-04T15:32:06.777Z,0.00
2023-01-04T15:34:35.784Z,0.00
2023-01-04T15:37:04.526Z,0.00
2023-01-04T15:39:33.195Z,0.00
2023-01-04T15:42:35.424Z,0.10
2023-01-04T15:45:04.690Z,0.00
2023-01-04T15:47:34.474Z,0.00
2023-01-04T15:50:03.077Z,0.10
2023-01-04T15:52:31.732Z,0.10
2023-01-04T15:55:00.261Z,0.38
2023-01-04T15:57:30.996Z,0.10
2023-01-04T15:59:59.651Z,0.20
2023-01-04T16:02:28.722Z,0.10
2023-01-04T16:04:57.538Z,0.10
2023-01-04T16:07:29.745Z,0.05
2023-01-04T16:10:02.135Z,0.10
2023-01-04T16:12:46.010Z,0.10
2023-01-04T16:15:19.330Z,0.17
2023-01-04T16:17:48.706Z,0.10
2023-01-04T16:20:18.874Z,0.30
2023-01-04T16:22:48.384Z,0.10
2023-01-04T16:25:16.869Z,0.25
2023-01-04T16:27:46.887Z,0.10
2023-01-04T16:30:15.789Z,0.20
2023-01-04T16:32:45.874Z,0.35
2023-01-04T16:35:14.521Z,0.73
2023-01-04T16:37:47.269Z,0.30
2023-01-04T16:40:16.024Z,0.30
2023-01-04T16:42:51.245Z,0.30
2023-01-04T16:45:21.355Z,0.38
2023-01-04T16:47:51.571Z,0.20
2023-01-04T16:50:20.625Z,0.30
2023-01-04T16:52:49.065Z,0.10
2023-01-04T16:55:23.531Z,0.20
2023-01-04T16:57:52.816Z,0.10
2023-01-04T17:00:24.149Z,0.20
2023-01-04T17:02:55.424Z,0.20
2023-01-04T17:05:24.112Z,0.10
2023-01-04T17:07:52.935Z,0.15
2023-01-04T17:10:27.243Z,0.20
2023-01-04T17:12:58.051Z,0.30
2023-01-04T17:15:44.893Z,0.17
2023-01-04T17:18:15.456Z,0.20
2023-01-04T17:20:44.141Z,0.10
2023-01-04T17:23:12.690Z,0.20
2023-01-04T17:25:41.510Z,0.10
2023-01-04T17:28:10.102Z,0.10
2023-01-04T17:30:41.380Z,0.10
2023-01-04T17:33:09.881Z,0.00
2023-01-04T17:35:39.076Z,0.00
2023-01-04T17:38:08.582Z,0.00
2023-01-04T17:40:37.340Z,0.00
2023-01-04T17:43:05.944Z,0.20
2023-01-04T17:45:34.534Z,0.00
2023-01-04T17:48:04.775Z,0.00
2023-01-04T17:50:33.221Z,0.00
2023-01-04T17:53:01.777Z,0.00
2023-01-04T17:55:30.381Z,0.00
2023-01-04T17:57:59.064Z,0.17
2023-01-04T18:00:27.515Z,0.00
2023-01-04T18:02:56.202Z,0.00
2023-01-04T18:05:26.143Z,0.10
2023-01-04T18:07:54.758Z,0.00
2023-01-04T18:10:40.908Z,0.00
2023-01-04T18:13:11.938Z,0.28
2023-01-04T18:15:54.988Z,0.10
2023-01-04T18:18:29.316Z,0.00
2023-01-04T18:20:59.924Z,0.00
2023-01-04T18:23:33.879Z,0.00
2023-01-04T18:26:03.301Z,0.00
2023-01-04T18:28:31.938Z,0.00
2023-01-04T18:31:00.740Z,0.00
2023-01-04T18:33:29.241Z,0.00
2023-01-04T18:36:03.546Z,0.00
2023-01-04T18:38:32.641Z,0.00
2023-01-04T18:41:01.099Z,0.00
2023-01-04T18:43:29.577Z,0.00
2023-01-04T18:45:58.003Z,0.00
2023-01-04T18:48:26.503Z,0.00
2023-01-04T18:50:55.092Z,0.00
2023-01-04T18:53:24.934Z,0.00
2023-01-04T18:55:53.360Z,0.00
2023-01-04T18:58:21.956Z,0.00
2023-01-04T19:00:50.696Z,0.00
2023-01-04T19:03:19.400Z,0.00
2023-01-04T19:05:47.861Z,0.00
2023-01-04T19:08:16.334Z,0.00
2023-01-04T19:10:48.865Z,0.00
2023-01-04T19:13:17.338Z,0.10
2023-01-04T19:15:47.815Z,0.00
2023-01-04T19:18:16.476Z,0.00
2023-01-04T19:20:44.936Z,0.00
2023-01-04T19:23:13.434Z,0.00
2023-01-04T19:25:42.622Z,0.00
2023-01-04T19:28:14.294Z,0.00
2023-01-04T19:30:43.811Z,0.00
2023-01-04T19:33:12.919Z,0.10
2023-01-04T19:35:42.300Z,0.13
2023-01-04T19:38:11.353Z,0.00
2023-01-04T19:40:40.679Z,0.00
2023-01-04T19:43:09.260Z,0.00
2023-01-04T19:45:42.574Z,0.00
2023-01-04T19:48:11.139Z,0.00
2023-01-04T19:50:39.841Z,0.00
2023-01-04T19:53:08.387Z,0.00
2023-01-04T19:55:40.320Z,0.00
2023-01-04T19:58:08.901Z,0.00
2023-01-04T20:00:37.514Z,0.00
2023-01-04T20:03:07.521Z,0.03
2023-01-04T20:05:36.136Z,0.00
2023-01-04T20:08:04.558Z,0.00
2023-01-04T20:10:33.083Z,0.00
2023-01-04T20:13:01.644Z,0.00
2023-01-04T20:15:30.282Z,0.00
2023-01-04T20:17:58.783Z,0.00
2023-01-04T20:20:28.801Z,0.10
2023-01-04T20:22:57.298Z,0.00
2023-01-04T20:25:25.725Z,0.00
2023-01-04T20:27:54.155Z,0.00
2023-01-04T20:30:22.719Z,0.00
2023-01-04T20:32:51.250Z,0.00
2023-01-04T20:35:20.988Z,0.00
2023-01-04T20:37:54.012Z,0.00
2023-01-04T20:40:22.583Z,0.00
2023-01-04T20:43:08.247Z,0.00
2023-01-04T20:45:36.743Z,0.00
2023-01-04T20:48:05.731Z,0.10
2023-01-04T20:50:34.387Z,0.10
2023-01-04T20:53:04.965Z,0.10
2023-01-04T20:55:33.784Z,0.13
2023-01-04T20:58:02.374Z,0.00
2023-01-04T21:00:30.843Z,0.00
2023-01-04T21:02:59.449Z,0.00
2023-01-04T21:05:28.043Z,0.00
2023-01-04T21:07:56.680Z,0.00
2023-01-04T21:10:26.732Z,0.08
2023-01-04T21:12:55.308Z,0.00
2023-01-04T21:15:23.826Z,0.10
2023-01-04T21:17:52.405Z,0.05
2023-01-04T21:20:21.770Z,0.00
2023-01-04T21:22:50.283Z,0.03
2023-01-04T21:25:18.860Z,0.00
2023-01-04T21:27:48.855Z,0.00
2023-01-04T21:30:17.395Z,0.10
2023-01-04T21:32:45.912Z,0.00
2023-01-04T21:35:14.426Z,0.00
2023-01-04T21:37:43.034Z,0.00
2023-01-04T21:40:12.266Z,0.10
2023-01-04T21:42:40.872Z,0.10
2023-01-04T21:45:11.954Z,0.10
2023-01-04T21:47:41.006Z,0.20
2023-01-04T21:50:16.595Z,0.10
2023-01-04T21:52:45.951Z,0.00
2023-01-04T21:55:14.617Z,0.10
2023-01-04T21:57:43.065Z,0.20
2023-01-04T22:00:14.013Z,0.10
2023-01-04T22:02:43.869Z,0.10
2023-01-04T22:05:12.459Z,0.20
2023-01-04T22:07:41.013Z,0.30
2023-01-04T22:10:10.262Z,0.10
2023-01-04T22:12:38.732Z,0.10
2023-01-04T22:15:08.572Z,0.22
2023-01-04T22:17:38.964Z,0.20
2023-01-04T22:20:08.598Z,0.35
2023-01-04T22:22:37.041Z,0.20
2023-01-04T22:25:06.170Z,0.20
2023-01-04T22:27:34.663Z,0.20
2023-01-04T22:30:03.325Z,0.40
2023-01-04T22:32:31.827Z,0.30
2023-01-04T22:35:02.427Z,0.22
2023-01-04T22:37:30.966Z,0.45
2023-01-04T22:39:59.341Z,0.40
2023-01-04T22:42:28.172Z,0.30
2023-01-04T22:44:56.794Z,0.70
2023-01-04T22:47:25.467Z,0.80
2023-01-04T22:49:54.129Z,0.80
2023-01-04T22:52:24.365Z,0.35
2023-01-04T22:54:53.171Z,0.93
2023-01-04T22:57:22.037Z,0.63
2023-01-04T22:59:50.871Z,0.50
2023-01-04T23:02:19.470Z,0.35
2023-01-04T23:04:48.433Z,0.60
2023-01-04T23:07:17.124Z,0.63
2023-01-04T23:09:47.707Z,0.63
2023-01-04T23:12:16.279Z,0.93
2023-01-04T23:14:45.005Z,0.90
2023-01-04T23:17:13.538Z,0.70
2023-01-04T23:19:42.152Z,0.57
2023-01-04T23:22:10.735Z,0.68
2023-01-04T23:24:39.921Z,0.60
2023-01-04T23:27:10.306Z,0.63
2023-01-04T23:29:39.151Z,0.63
2023-01-04T23:32:07.939Z,0.75
2023-01-04T23:34:36.543Z,0.60
2023-01-04T23:37:05.067Z,1.02
2023-01-04T23:39:33.595Z,1.10
2023-01-04T23:42:02.076Z,0.55
2023-01-04T23:44:32.475Z,0.90
2023-01-04T23:49:33.382Z,0.85
2023-01-04T23:52:02.094Z,1.00
2023-01-04T23:54:30.650Z,0.90
2023-01-04T23:57:00.460Z,1.25
2023-01-04T23:59:29.005Z,2.33
